createdAt,value
2019-03-27T00:01:58.442Z,24.23
2019-03-27T00:04:29.797Z,18.27
2019-03-27T00:07:00.871Z,16.90
2019-03-27T00:09:32.056Z,21.37
2019-03-27T00:12:02.628Z,20.93
2019-03-27T00:14:33.128Z,19.40
2019-03-27T00:17:04.096Z,23.00
2019-03-27T00:19:34.865Z,18.73
2019-03-27T00:22:05.776Z,15.50
2019-03-27T00:24:36.498Z,17.17
2019-03-27T00:27:07.335Z,21.30
2019-03-27T00:29:37.728Z,18.07
2019-03-27T00:32:08.904Z,18.93
2019-03-27T00:34:39.398Z,20.43
2019-03-27T00:37:09.897Z,23.70
2019-03-27T00:39:40.825Z,20.60
2019-03-27T00:42:11.349Z,18.00
2019-03-27T00:44:42.196Z,18.63
2019-03-27T00:47:13.481Z,17.33
2019-03-27T00:49:44.253Z,22.90
2019-03-27T00:52:14.983Z,22.33
2019-03-27T00:54:45.597Z,19.13
2019-03-27T00:57:16.029Z,19.20
2019-03-27T00:59:46.812Z,17.33
2019-03-27T01:02:17.267Z,18.53
2019-03-27T01:04:48.145Z,17.77
2019-03-27T01:07:18.962Z,16.20
2019-03-27T01:09:49.628Z,19.13
2019-03-27T01:12:20.506Z,20.20
2019-03-27T01:14:51.115Z,19.70
2019-03-27T01:17:22.087Z,19.53
2019-03-27T01:19:52.573Z,23.53
2019-03-27T01:22:23.446Z,25.20
2019-03-27T01:24:54.160Z,21.37
2019-03-27T01:27:24.570Z,22.73
2019-03-27T01:29:54.996Z,25.13
2019-03-27T01:32:25.407Z,19.27
2019-03-27T01:34:56.167Z,22.73
2019-03-27T01:37:26.662Z,19.87
2019-03-27T01:39:57.634Z,20.33
2019-03-27T01:42:28.088Z,22.20
2019-03-27T01:44:58.609Z,24.93
2019-03-27T01:47:29.488Z,25.10
2019-03-27T01:50:00.060Z,25.00
2019-03-27T01:52:30.669Z,26.73
2019-03-27T01:55:01.153Z,21.80
2019-03-27T01:57:32.122Z,21.07
2019-03-27T02:00:02.599Z,19.93
2019-03-27T02:02:33.063Z,21.77
2019-03-27T02:05:03.822Z,23.53
2019-03-27T02:07:34.323Z,22.77
2019-03-27T02:10:06.383Z,23.00
2019-03-27T02:12:36.885Z,19.93
2019-03-27T02:15:08.811Z,17.10
2019-03-27T02:17:39.381Z,22.00
2019-03-27T02:20:11.954Z,21.83
2019-03-27T02:22:42.706Z,22.70
2019-03-27T02:25:13.207Z,28.63
2019-03-27T02:27:44.039Z,28.53
2019-03-27T02:30:14.677Z,30.50
2019-03-27T02:32:45.281Z,23.83
2019-03-27T02:35:15.921Z,21.37
2019-03-27T02:37:46.423Z,23.23
2019-03-27T02:40:17.219Z,28.37
2019-03-27T02:42:47.645Z,28.07
2019-03-27T02:45:18.492Z,31.43
2019-03-27T02:47:49.049Z,27.23
2019-03-27T02:50:19.762Z,28.73
2019-03-27T02:52:50.187Z,23.67
2019-03-27T02:55:20.700Z,23.63
2019-03-27T02:57:51.613Z,21.03
2019-03-27T03:00:22.208Z,25.37
2019-03-27T03:02:52.804Z,21.20
2019-03-27T03:05:23.368Z,20.93
2019-03-27T03:07:53.720Z,23.43
2019-03-27T03:10:24.468Z,28.30
2019-03-27T03:12:54.955Z,32.63
2019-03-27T03:15:26.131Z,34.60
2019-03-27T03:17:56.612Z,32.80
2019-03-27T03:20:27.616Z,31.50
2019-03-27T03:22:59.761Z,27.13
2019-03-27T03:25:31.038Z,21.67
2019-03-27T03:28:01.500Z,22.67
2019-03-27T03:30:31.910Z,25.53
2019-03-27T03:33:02.440Z,32.23
2019-03-27T03:35:33.114Z,39.13
2019-03-27T03:38:03.937Z,37.67
2019-03-27T03:40:35.078Z,43.60
2019-03-27T03:43:06.249Z,41.23
2019-03-27T03:45:36.808Z,32.97
2019-03-27T03:48:07.206Z,29.93
2019-03-27T03:50:44.560Z,26.87
2019-03-27T03:53:16.015Z,25.90
2019-03-27T03:55:46.618Z,26.17
2019-03-27T03:58:18.016Z,26.93
2019-03-27T04:00:49.642Z,35.83
2019-03-27T04:03:22.557Z,35.67
2019-03-27T04:05:53.016Z,38.37
2019-03-27T04:08:23.984Z,34.20
2019-03-27T04:10:54.694Z,33.83
2019-03-27T04:13:25.155Z,29.67
2019-03-27T04:15:55.899Z,27.60
2019-03-27T04:18:26.798Z,29.73
2019-03-27T04:20:57.381Z,28.73
2019-03-27T04:23:28.892Z,24.93
2019-03-27T04:26:09.849Z,24.30
2019-03-27T04:28:31.659Z,24.03
2019-03-27T04:31:02.240Z,25.40
2019-03-27T04:33:32.637Z,33.50
2019-03-27T04:36:03.125Z,28.47
2019-03-27T04:38:35.384Z,35.93
2019-03-27T04:41:05.945Z,34.10
2019-03-27T04:43:36.581Z,35.70
2019-03-27T04:46:07.500Z,34.97
2019-03-27T04:48:38.000Z,37.37
2019-03-27T04:51:08.600Z,29.97
2019-03-27T04:53:39.168Z,28.40
2019-03-27T04:56:09.895Z,27.20
2019-03-27T04:58:40.302Z,26.73
2019-03-27T05:01:10.685Z,25.20
2019-03-27T05:03:41.195Z,22.80
2019-03-27T05:06:11.965Z,29.67
2019-03-27T05:08:42.391Z,26.73
2019-03-27T05:11:12.827Z,28.27
2019-03-27T05:13:43.440Z,33.60
2019-03-27T05:16:14.081Z,35.03
2019-03-27T05:18:45.509Z,35.00
2019-03-27T05:21:16.469Z,31.10
2019-03-27T05:23:46.915Z,36.67
2019-03-27T05:26:17.709Z,38.07
2019-03-27T05:28:48.289Z,44.90
2019-03-27T05:31:19.227Z,48.50
2019-03-27T05:33:50.175Z,47.27
2019-03-27T05:36:20.812Z,49.90
2019-03-27T05:38:52.264Z,55.20
2019-03-27T05:41:22.820Z,54.63
2019-03-27T05:43:53.703Z,38.23
2019-03-27T05:46:26.678Z,41.07
2019-03-27T05:48:57.317Z,37.67
2019-03-27T05:51:27.776Z,29.60
2019-03-27T05:53:58.205Z,22.87
2019-03-27T05:56:28.848Z,20.63
2019-03-27T05:58:59.588Z,21.50
2019-03-27T06:01:30.142Z,15.43
2019-03-27T06:04:00.848Z,15.27
2019-03-27T06:06:31.417Z,12.60
2019-03-27T06:09:02.437Z,12.07
2019-03-27T06:11:33.220Z,10.90
2019-03-27T06:14:03.769Z,15.20
2019-03-27T06:16:34.178Z,12.43
2019-03-27T06:19:04.674Z,12.63
2019-03-27T06:21:35.228Z,13.27
2019-03-27T06:24:06.052Z,14.43
2019-03-27T06:26:38.669Z,13.43
2019-03-27T06:29:09.302Z,12.77
2019-03-27T06:31:40.042Z,11.37
2019-03-27T06:34:11.144Z,13.77
2019-03-27T06:36:42.084Z,13.70
2019-03-27T06:39:12.637Z,13.13
2019-03-27T06:41:43.234Z,13.77
2019-03-27T06:44:13.905Z,12.03
2019-03-27T06:46:45.245Z,11.47
2019-03-27T06:49:15.849Z,11.87
2019-03-27T06:51:46.470Z,12.20
2019-03-27T06:54:17.014Z,10.17
2019-03-27T06:56:47.862Z,12.17
2019-03-27T06:59:18.622Z,11.87
2019-03-27T07:01:49.305Z,12.00
2019-03-27T07:04:19.722Z,9.10
2019-03-27T07:06:50.719Z,10.23
2019-03-27T07:09:21.219Z,11.03
2019-03-27T07:11:52.593Z,11.90
2019-03-27T07:14:23.837Z,12.20
2019-03-27T07:16:54.342Z,11.85
2019-03-27T07:19:25.254Z,10.72
2019-03-27T07:21:55.907Z,10.93
2019-03-27T07:24:26.932Z,10.60
2019-03-27T07:26:57.474Z,9.15
2019-03-27T07:29:28.236Z,10.40
2019-03-27T07:31:58.930Z,9.65
2019-03-27T07:34:29.327Z,11.38
2019-03-27T07:37:00.068Z,14.55
2019-03-27T07:39:30.876Z,13.35
2019-03-27T07:42:01.522Z,11.93
2019-03-27T07:44:32.883Z,14.07
2019-03-27T07:47:03.575Z,9.20
2019-03-27T07:49:34.057Z,12.47
2019-03-27T07:52:04.693Z,13.62
2019-03-27T07:54:35.539Z,12.68
2019-03-27T07:57:06.202Z,10.80
2019-03-27T07:59:36.707Z,14.68
2019-03-27T08:02:07.254Z,15.00
2019-03-27T08:04:37.813Z,13.83
2019-03-27T08:07:08.440Z,18.85
2019-03-27T08:09:38.923Z,13.72
2019-03-27T08:12:10.204Z,15.65
2019-03-27T08:14:41.040Z,18.42
2019-03-27T08:17:11.873Z,14.68
2019-03-27T08:19:42.661Z,18.67
2019-03-27T08:22:13.678Z,13.37
2019-03-27T08:24:44.230Z,22.23
2019-03-27T08:27:14.764Z,19.17
2019-03-27T08:29:45.362Z,18.17
2019-03-27T08:32:15.856Z,22.40
2019-03-27T08:34:46.439Z,17.67
2019-03-27T08:37:17.186Z,21.93
2019-03-27T08:39:47.764Z,19.07
2019-03-27T08:42:18.693Z,21.10
2019-03-27T08:44:49.154Z,18.60
2019-03-27T08:47:20.320Z,19.27
2019-03-27T08:49:53.085Z,17.23
2019-03-27T08:52:23.651Z,17.10
2019-03-27T08:54:55.817Z,15.70
2019-03-27T08:57:27.387Z,14.00
2019-03-27T08:59:57.960Z,17.83
2019-03-27T09:02:28.503Z,13.60
2019-03-27T09:04:58.965Z,14.17
2019-03-27T09:07:29.676Z,12.30
2019-03-27T09:10:00.670Z,13.13
2019-03-27T09:12:31.600Z,10.20
2019-03-27T09:15:02.083Z,10.68
2019-03-27T09:17:32.771Z,14.73
2019-03-27T09:20:06.813Z,13.45
2019-03-27T09:22:37.793Z,13.48
2019-03-27T09:25:08.604Z,12.45
2019-03-27T09:27:39.358Z,12.28
2019-03-27T09:30:12.323Z,10.95
2019-03-27T09:32:42.908Z,10.68
2019-03-27T09:35:13.964Z,9.75
2019-03-27T09:37:44.835Z,13.35
2019-03-27T09:40:17.130Z,11.53
2019-03-27T09:42:47.684Z,12.43
2019-03-27T09:45:18.504Z,11.97
2019-03-27T09:47:49.049Z,15.30
2019-03-27T09:50:20.652Z,15.70
2019-03-27T09:52:51.304Z,12.20
2019-03-27T09:55:21.973Z,13.37
2019-03-27T09:57:52.562Z,16.07
2019-03-27T10:01:07.694Z,16.63
2019-03-27T10:03:38.256Z,10.03
2019-03-27T10:06:09.051Z,10.00
2019-03-27T10:08:39.782Z,11.73
2019-03-27T10:11:10.534Z,12.57
2019-03-27T10:13:40.935Z,10.97
2019-03-27T10:16:11.812Z,12.27
2019-03-27T10:18:42.366Z,11.63
2019-03-27T10:21:12.866Z,13.78
2019-03-27T10:23:43.450Z,12.93
2019-03-27T10:26:14.103Z,12.90
2019-03-27T10:28:44.924Z,11.80
2019-03-27T10:31:16.315Z,10.77
2019-03-27T10:33:47.099Z,12.50
2019-03-27T10:36:17.602Z,12.00
2019-03-27T10:38:48.476Z,10.77
2019-03-27T10:41:18.873Z,11.73
2019-03-27T10:43:49.316Z,14.50
2019-03-27T10:46:19.928Z,15.10
2019-03-27T10:48:52.911Z,14.43
2019-03-27T10:51:23.792Z,12.13
2019-03-27T10:53:56.033Z,18.00
2019-03-27T10:56:26.648Z,13.40
2019-03-27T10:58:57.181Z,16.17
2019-03-27T11:01:27.728Z,16.00
2019-03-27T11:03:58.202Z,15.20
2019-03-27T11:06:28.720Z,15.00
2019-03-27T11:08:59.297Z,14.93
2019-03-27T11:11:29.864Z,11.93
2019-03-27T11:14:02.028Z,11.87
2019-03-27T11:16:32.480Z,16.23
2019-03-27T11:19:03.012Z,17.83
2019-03-27T11:21:35.853Z,9.77
2019-03-27T11:24:06.477Z,13.73
2019-03-27T11:26:37.241Z,15.47
2019-03-27T11:29:07.804Z,16.90
2019-03-27T11:31:38.224Z,10.53
2019-03-27T11:34:08.632Z,14.93
2019-03-27T11:36:39.147Z,12.33
2019-03-27T11:39:10.606Z,11.57
2019-03-27T11:41:41.186Z,14.40
2019-03-27T11:44:12.834Z,14.73
2019-03-27T11:46:44.425Z,14.67
2019-03-27T11:49:14.987Z,12.40
2019-03-27T11:51:45.918Z,11.63
2019-03-27T11:54:17.233Z,12.73
2019-03-27T11:56:47.766Z,15.80
2019-03-27T11:59:18.668Z,13.80
2019-03-27T12:01:49.427Z,16.10
2019-03-27T12:04:20.300Z,14.87
2019-03-27T12:06:50.921Z,18.13
2019-03-27T12:09:36.748Z,16.27
2019-03-27T12:12:07.514Z,12.60
2019-03-27T12:14:54.934Z,13.63
2019-03-27T12:17:25.583Z,13.83
2019-03-27T12:19:56.171Z,10.63
2019-03-27T12:22:26.839Z,12.37
2019-03-27T12:24:58.087Z,13.30
2019-03-27T12:27:34.600Z,11.20
2019-03-27T12:30:07.511Z,10.60
2019-03-27T12:32:38.875Z,10.20
2019-03-27T12:35:09.989Z,9.50
2019-03-27T12:37:40.690Z,11.20
2019-03-27T12:40:12.181Z,12.63
2019-03-27T12:42:43.130Z,7.60
2019-03-27T12:45:14.144Z,8.53
2019-03-27T12:47:44.822Z,7.53
2019-03-27T12:50:15.722Z,9.67
2019-03-27T12:52:46.385Z,8.10
2019-03-27T12:55:17.331Z,12.97
2019-03-27T12:57:47.805Z,8.57
2019-03-27T13:00:19.162Z,9.03
2019-03-27T13:02:49.886Z,14.43
2019-03-27T13:05:20.938Z,7.20
2019-03-27T13:07:56.631Z,12.17
2019-03-27T13:10:27.697Z,8.67
2019-03-27T13:12:58.178Z,9.90
2019-03-27T13:15:28.772Z,9.63
2019-03-27T13:17:59.579Z,10.00
2019-03-27T13:20:30.246Z,9.33
2019-03-27T13:23:01.379Z,9.30
2019-03-27T13:25:31.881Z,9.20
2019-03-27T13:28:02.519Z,8.77
2019-03-27T13:30:33.688Z,10.87
2019-03-27T13:33:04.306Z,7.57
2019-03-27T13:35:35.476Z,11.57
2019-03-27T13:38:06.014Z,10.97
2019-03-27T13:40:37.373Z,9.90
2019-03-27T13:43:08.271Z,8.77
2019-03-27T13:45:38.944Z,10.23
2019-03-27T13:48:09.839Z,8.93
2019-03-27T13:50:40.367Z,9.30
2019-03-27T13:53:10.922Z,9.97
2019-03-27T13:55:41.351Z,7.93
2019-03-27T13:58:11.931Z,10.60
2019-03-27T14:00:43.012Z,8.07
2019-03-27T14:03:13.706Z,10.40
2019-03-27T14:05:44.807Z,6.27
2019-03-27T14:08:16.074Z,8.87
2019-03-27T14:10:46.653Z,7.67
2019-03-27T14:13:17.212Z,7.80
2019-03-27T14:15:47.855Z,9.63
2019-03-27T14:18:18.848Z,12.20
2019-03-27T14:20:50.936Z,10.13
2019-03-27T14:23:21.915Z,10.70
2019-03-27T14:25:52.642Z,7.87
2019-03-27T14:28:23.140Z,8.83
2019-03-27T14:30:58.555Z,6.03
2019-03-27T14:33:29.005Z,9.73
2019-03-27T14:35:59.631Z,8.63
2019-03-27T14:38:30.131Z,12.70
2019-03-27T14:41:00.664Z,9.03
2019-03-27T14:43:31.396Z,14.13
2019-03-27T14:46:02.434Z,9.60
2019-03-27T14:48:33.014Z,15.70
2019-03-27T14:51:06.015Z,12.30
2019-03-27T14:53:36.698Z,8.60
2019-03-27T14:56:07.196Z,10.50
2019-03-27T14:58:37.577Z,14.97
2019-03-27T15:01:08.118Z,11.97
2019-03-27T15:03:38.656Z,14.90
2019-03-27T15:06:09.341Z,9.87
2019-03-27T15:08:40.353Z,9.90
2019-03-27T15:11:10.804Z,9.47
2019-03-27T15:13:41.301Z,8.47
2019-03-27T15:16:11.817Z,10.30
2019-03-27T15:18:42.324Z,10.73
2019-03-27T15:21:13.506Z,8.13
2019-03-27T15:23:44.573Z,10.33
2019-03-27T15:26:15.497Z,10.60
2019-03-27T15:28:46.236Z,8.97
2019-03-27T15:31:20.647Z,11.27
2019-03-27T15:33:49.171Z,11.37
2019-03-27T15:36:20.212Z,8.43
2019-03-27T15:38:50.827Z,13.10
2019-03-27T15:41:21.275Z,8.37
2019-03-27T15:43:51.715Z,7.57
2019-03-27T15:46:22.976Z,12.13
2019-03-27T15:48:53.488Z,11.27
2019-03-27T15:51:24.060Z,11.13
2019-03-27T15:53:55.119Z,8.63
2019-03-27T15:56:25.745Z,12.13
2019-03-27T15:58:56.805Z,7.83
2019-03-27T16:01:27.556Z,11.17
2019-03-27T16:03:58.163Z,9.70
2019-03-27T16:06:29.017Z,10.03
2019-03-27T16:08:59.746Z,9.83
2019-03-27T16:11:30.397Z,10.77
2019-03-27T16:14:01.273Z,14.43
2019-03-27T16:16:31.897Z,10.57
2019-03-27T16:19:02.365Z,8.70
2019-03-27T16:21:33.004Z,9.67
2019-03-27T16:24:06.643Z,11.17
2019-03-27T16:26:35.896Z,10.30
2019-03-27T16:29:07.011Z,8.73
2019-03-27T16:31:38.823Z,10.33
2019-03-27T16:34:10.032Z,12.23
2019-03-27T16:36:40.614Z,9.70
2019-03-27T16:39:11.213Z,12.80
2019-03-27T16:41:42.263Z,12.83
2019-03-27T16:44:12.937Z,9.70
2019-03-27T16:46:43.698Z,10.37
2019-03-27T16:49:14.332Z,11.73
2019-03-27T16:51:45.367Z,11.93
2019-03-27T16:54:15.978Z,7.53
2019-03-27T16:56:46.436Z,6.57
2019-03-27T16:59:17.591Z,11.60
2019-03-27T17:01:48.358Z,11.47
2019-03-27T17:04:18.875Z,9.37
2019-03-27T17:06:49.408Z,9.37
2019-03-27T17:09:19.996Z,9.90
2019-03-27T17:11:50.585Z,13.33
2019-03-27T17:14:21.805Z,8.13
2019-03-27T17:16:52.417Z,8.83
2019-03-27T17:19:22.871Z,7.20
2019-03-27T17:21:53.455Z,6.37
2019-03-27T17:24:23.829Z,7.63
2019-03-27T17:26:54.462Z,6.83
2019-03-27T17:29:25.553Z,7.27
2019-03-27T17:31:56.200Z,8.50
2019-03-27T17:34:26.790Z,7.70
2019-03-27T17:36:57.219Z,11.87
2019-03-27T17:39:27.690Z,10.77
2019-03-27T17:41:58.262Z,8.57
2019-03-27T17:44:28.872Z,11.47
2019-03-27T17:46:59.694Z,7.97
2019-03-27T17:49:30.298Z,9.97
2019-03-27T17:52:00.760Z,11.50
2019-03-27T17:54:31.269Z,10.73
2019-03-27T17:57:01.929Z,9.70
2019-03-27T17:59:32.374Z,10.57
2019-03-27T18:02:03.203Z,7.87
2019-03-27T18:04:34.169Z,8.13
2019-03-27T18:07:04.959Z,9.20
2019-03-27T18:09:35.678Z,11.67
2019-03-27T18:12:06.412Z,11.60
2019-03-27T18:14:37.882Z,12.57
2019-03-27T18:17:08.944Z,12.30
2019-03-27T18:19:39.709Z,21.33
2019-03-27T18:22:10.321Z,24.57
2019-03-27T18:24:40.921Z,18.10
2019-03-27T18:27:11.731Z,13.60
2019-03-27T18:29:42.220Z,15.53
2019-03-27T18:32:12.842Z,17.30
2019-03-27T18:34:43.836Z,10.80
2019-03-27T18:37:16.066Z,13.37
2019-03-27T18:39:46.840Z,12.80
2019-03-27T18:42:17.315Z,17.87
2019-03-27T18:44:47.749Z,18.60
2019-03-27T18:47:18.606Z,14.67
2019-03-27T18:49:49.063Z,13.30
2019-03-27T18:52:19.677Z,19.23
2019-03-27T18:54:50.095Z,18.33
2019-03-27T18:57:20.546Z,18.60
2019-03-27T18:59:51.423Z,17.93
2019-03-27T19:02:22.070Z,14.53
2019-03-27T19:04:52.604Z,12.73
2019-03-27T19:07:23.327Z,19.27
2019-03-27T19:09:53.791Z,16.37
2019-03-27T19:12:26.890Z,18.37
2019-03-27T19:14:56.748Z,18.60
2019-03-27T19:17:27.537Z,19.63
2019-03-27T19:19:58.162Z,19.17
2019-03-27T19:22:30.718Z,22.23
2019-03-27T19:25:01.603Z,19.03
2019-03-27T19:27:32.096Z,16.93
2019-03-27T19:30:02.897Z,17.57
2019-03-27T19:32:33.400Z,18.53
2019-03-27T19:35:04.158Z,21.97
2019-03-27T19:37:35.110Z,19.07
2019-03-27T19:40:07.249Z,13.17
2019-03-27T19:42:37.961Z,15.03
2019-03-27T19:45:09.207Z,15.07
2019-03-27T19:47:39.921Z,12.23
2019-03-27T19:50:11.427Z,14.40
2019-03-27T19:52:41.985Z,12.10
2019-03-27T19:55:13.117Z,16.87
2019-03-27T19:57:44.142Z,15.63
2019-03-27T20:00:15.158Z,13.00
2019-03-27T20:02:45.699Z,13.73
2019-03-27T20:05:16.686Z,21.87
2019-03-27T20:07:47.702Z,18.63
2019-03-27T20:10:19.167Z,20.77
2019-03-27T20:12:50.141Z,16.70
2019-03-27T20:15:22.676Z,15.97
2019-03-27T20:17:53.455Z,17.97
2019-03-27T20:20:24.702Z,17.37
2019-03-27T20:22:55.335Z,16.60
2019-03-27T20:25:25.947Z,14.23
2019-03-27T20:27:56.909Z,11.10
2019-03-27T20:30:28.087Z,14.37
2019-03-27T20:32:59.037Z,12.03
2019-03-27T20:35:29.574Z,13.90
2019-03-27T20:38:00.278Z,13.80
2019-03-27T20:40:33.830Z,14.10
2019-03-27T20:43:04.723Z,14.43
2019-03-27T20:45:35.685Z,16.00
2019-03-27T20:48:06.713Z,13.27
2019-03-27T20:50:37.444Z,15.63
2019-03-27T20:53:08.220Z,12.63
2019-03-27T20:55:38.671Z,13.60
2019-03-27T20:58:09.237Z,13.30
2019-03-27T21:00:40.007Z,12.50
2019-03-27T21:03:11.348Z,13.30
2019-03-27T21:05:41.738Z,12.00
2019-03-27T21:08:12.636Z,17.13
2019-03-27T21:10:43.177Z,12.50
2019-03-27T21:13:13.829Z,14.53
2019-03-27T21:15:44.334Z,16.40
2019-03-27T21:18:14.942Z,14.17
2019-03-27T21:20:45.936Z,13.40
2019-03-27T21:23:16.379Z,14.83
2019-03-27T21:25:46.776Z,14.77
2019-03-27T21:28:17.276Z,14.27
2019-03-27T21:30:49.376Z,18.70
2019-03-27T21:33:20.451Z,11.10
2019-03-27T21:35:50.990Z,13.17
2019-03-27T21:38:23.300Z,17.73
2019-03-27T21:40:53.848Z,13.73
2019-03-27T21:43:24.621Z,14.13
2019-03-27T21:45:55.084Z,13.70
2019-03-27T21:48:25.907Z,14.70
2019-03-27T21:50:56.492Z,13.63
2019-03-27T21:53:27.356Z,13.07
2019-03-27T21:55:57.881Z,18.93
2019-03-27T21:58:28.965Z,11.10
2019-03-27T22:00:59.448Z,12.00
2019-03-27T22:03:30.036Z,11.60
2019-03-27T22:06:00.576Z,12.77
2019-03-27T22:08:31.081Z,13.93
2019-03-27T22:11:01.552Z,11.93
2019-03-27T22:13:32.303Z,14.00
2019-03-27T22:16:03.300Z,14.73
2019-03-27T22:18:34.285Z,14.00
2019-03-27T22:21:05.142Z,15.53
2019-03-27T22:23:35.975Z,18.17
2019-03-27T22:26:06.440Z,16.23
2019-03-27T22:28:37.385Z,19.87
2019-03-27T22:31:07.898Z,14.73
2019-03-27T22:33:38.379Z,15.60
2019-03-27T22:36:08.958Z,18.00
2019-03-27T22:38:39.436Z,18.43
2019-03-27T22:41:09.950Z,18.90
2019-03-27T22:43:40.458Z,15.80
2019-03-27T22:46:11.053Z,14.80
2019-03-27T22:48:42.710Z,15.50
2019-03-27T22:51:13.806Z,14.43
2019-03-27T22:53:44.524Z,14.23
2019-03-27T22:56:15.989Z,16.50
2019-03-27T22:58:46.461Z,14.00
2019-03-27T23:01:17.060Z,16.07
2019-03-27T23:03:47.539Z,13.33
2019-03-27T23:06:18.215Z,14.07
2019-03-27T23:08:48.683Z,19.40
2019-03-27T23:11:19.714Z,18.07
2019-03-27T23:13:50.202Z,16.17
2019-03-27T23:16:20.746Z,15.07
2019-03-27T23:18:51.170Z,14.87
2019-03-27T23:21:22.105Z,17.10
2019-03-27T23:23:52.641Z,16.57
2019-03-27T23:26:23.189Z,19.07
2019-03-27T23:28:53.801Z,20.57
2019-03-27T23:31:24.423Z,15.47
2019-03-27T23:33:54.870Z,15.20
2019-03-27T23:36:25.407Z,19.80
2019-03-27T23:38:56.178Z,17.17
2019-03-27T23:41:26.822Z,18.27
2019-03-27T23:43:57.254Z,17.90
2019-03-27T23:46:27.794Z,15.17
2019-03-27T23:48:59.469Z,16.60
2019-03-27T23:51:30.453Z,14.87
2019-03-27T23:54:01.415Z,15.37
2019-03-27T23:56:31.870Z,14.73
2019-03-27T23:59:02.512Z,15.97
